sensor_id;sensor_type;location;lat;lon;timestamp;P1;durP1;ratioP1;P2;durP2;ratioP2
177;SDS011;77;48.792;9.032;2023-03-09T00:00:52;5.97;;;3.53;;
177;SDS011;77;48.792;9.032;2023-03-09T00:03:18;5.40;;;3.00;;
177;SDS011;77;48.792;9.032;2023-03-09T00:05:43;7.50;;;2.90;;
177;SDS011;77;48.792;9.032;2023-03-09T00:08:09;7.20;;;3.00;;
177;SDS011;77;48.792;9.032;2023-03-09T00:10:34;7.30;;;2.97;;
177;SDS011;77;48.792;9.032;2023-03-09T00:12:59;8.00;;;3.17;;
177;SDS011;77;48.792;9.032;2023-03-09T00:15:24;6.50;;;2.80;;
177;SDS011;77;48.792;9.032;2023-03-09T00:17:51;8.03;;;4.30;;
177;SDS011;77;48.792;9.032;2023-03-09T00:20:16;8.83;;;4.47;;
177;SDS011;77;48.792;9.032;2023-03-09T00:22:41;7.87;;;3.50;;
177;SDS011;77;48.792;9.032;2023-03-09T00:25:07;7.53;;;2.93;;
177;SDS011;77;48.792;9.032;2023-03-09T00:27:32;6.80;;;2.90;;
177;SDS011;77;48.792;9.032;2023-03-09T00:29:57;5.37;;;2.30;;
177;SDS011;77;48.792;9.032;2023-03-09T00:32:23;8.87;;;2.43;;
177;SDS011;77;48.792;9.032;2023-03-09T00:34:49;5.80;;;2.50;;
177;SDS011;77;48.792;9.032;2023-03-09T00:37:14;4.10;;;2.17;;
177;SDS011;77;48.792;9.032;2023-03-09T00:39:40;6.53;;;2.83;;
177;SDS011;77;48.792;9.032;2023-03-09T00:42:05;5.30;;;2.50;;
177;SDS011;77;48.792;9.032;2023-03-09T00:44:30;6.23;;;2.57;;
177;SDS011;77;48.792;9.032;2023-03-09T00:46:55;5.20;;;2.10;;
177;SDS011;77;48.792;9.032;2023-03-09T00:49:21;4.70;;;2.00;;
177;SDS011;77;48.792;9.032;2023-03-09T00:51:47;5.30;;;2.17;;
177;SDS011;77;48.792;9.032;2023-03-09T00:54:13;5.53;;;2.23;;
177;SDS011;77;48.792;9.032;2023-03-09T00:56:38;3.67;;;1.73;;
177;SDS011;77;48.792;9.032;2023-03-09T00:59:03;3.80;;;1.70;;
177;SDS011;77;48.792;9.032;2023-03-09T01:01:29;3.40;;;1.50;;
177;SDS011;77;48.792;9.032;2023-03-09T01:03:55;3.80;;;1.50;;
177;SDS011;77;48.792;9.032;2023-03-09T01:06:20;4.00;;;1.60;;
177;SDS011;77;48.792;9.032;2023-03-09T01:08:46;3.70;;;1.90;;
177;SDS011;77;48.792;9.032;2023-03-09T01:11:12;4.70;;;1.83;;
177;SDS011;77;48.792;9.032;2023-03-09T01:13:38;9.03;;;1.60;;
177;SDS011;77;48.792;9.032;2023-03-09T01:16:04;3.50;;;1.53;;
177;SDS011;77;48.792;9.032;2023-03-09T01:18:29;3.53;;;1.40;;
177;SDS011;77;48.792;9.032;2023-03-09T01:20:55;3.20;;;1.40;;
177;SDS011;77;48.792;9.032;2023-03-09T01:23:20;3.03;;;1.23;;
177;SDS011;77;48.792;9.032;2023-03-09T01:25:47;3.40;;;1.40;;
177;SDS011;77;48.792;9.032;2023-03-09T01:28:12;3.70;;;1.40;;
177;SDS011;77;48.792;9.032;2023-03-09T01:30:37;3.00;;;1.40;;
177;SDS011;77;48.792;9.032;2023-03-09T01:33:02;2.93;;;1.40;;
177;SDS011;77;48.792;9.032;2023-03-09T01:35:28;3.60;;;1.50;;
177;SDS011;77;48.792;9.032;2023-03-09T01:37:53;3.57;;;1.73;;
177;SDS011;77;48.792;9.032;2023-03-09T01:40:19;3.00;;;1.40;;
177;SDS011;77;48.792;9.032;2023-03-09T01:42:53;3.00;;;1.30;;
177;SDS011;77;48.792;9.032;2023-03-09T01:48:03;3.50;;;1.50;;
177;SDS011;77;48.792;9.032;2023-03-09T01:50:29;3.50;;;1.50;;
177;SDS011;77;48.792;9.032;2023-03-09T01:52:55;4.07;;;1.60;;
177;SDS011;77;48.792;9.032;2023-03-09T01:55:22;3.90;;;1.70;;
177;SDS011;77;48.792;9.032;2023-03-09T01:57:48;3.10;;;1.40;;
177;SDS011;77;48.792;9.032;2023-03-09T02:00:18;3.97;;;1.77;;
177;SDS011;77;48.792;9.032;2023-03-09T02:02:48;8.73;;;1.67;;
177;SDS011;77;48.792;9.032;2023-03-09T02:05:15;4.10;;;1.40;;
177;SDS011;77;48.792;9.032;2023-03-09T02:07:42;3.60;;;1.60;;
177;SDS011;77;48.792;9.032;2023-03-09T02:10:08;3.87;;;1.47;;
177;SDS011;77;48.792;9.032;2023-03-09T02:12:34;3.33;;;1.40;;
177;SDS011;77;48.792;9.032;2023-03-09T02:15:00;2.77;;;1.30;;
177;SDS011;77;48.792;9.032;2023-03-09T02:17:27;4.00;;;1.40;;
177;SDS011;77;48.792;9.032;2023-03-09T02:19:54;2.77;;;1.20;;
177;SDS011;77;48.792;9.032;2023-03-09T02:22:22;2.60;;;1.20;;
177;SDS011;77;48.792;9.032;2023-03-09T02:24:50;2.63;;;1.30;;
177;SDS011;77;48.792;9.032;2023-03-09T02:27:19;2.90;;;1.37;;
177;SDS011;77;48.792;9.032;2023-03-09T02:29:44;3.30;;;1.67;;
177;SDS011;77;48.792;9.032;2023-03-09T02:32:10;2.80;;;1.30;;
177;SDS011;77;48.792;9.032;2023-03-09T02:34:35;2.60;;;1.20;;
177;SDS011;77;48.792;9.032;2023-03-09T02:37:00;3.57;;;1.40;;
177;SDS011;77;48.792;9.032;2023-03-09T02:39:28;2.70;;;1.30;;
177;SDS011;77;48.792;9.032;2023-03-09T02:41:54;3.00;;;1.40;;
177;SDS011;77;48.792;9.032;2023-03-09T02:44:21;3.90;;;1.37;;
177;SDS011;77;48.792;9.032;2023-03-09T02:46:46;3.90;;;1.70;;
177;SDS011;77;48.792;9.032;2023-03-09T02:49:11;3.30;;;1.30;;
177;SDS011;77;48.792;9.032;2023-03-09T02:51:37;3.10;;;1.50;;
177;SDS011;77;48.792;9.032;2023-03-09T02:54:02;3.70;;;1.57;;
177;SDS011;77;48.792;9.032;2023-03-09T02:56:27;3.37;;;1.40;;
177;SDS011;77;48.792;9.032;2023-03-09T02:58:52;3.97;;;1.40;;
177;SDS011;77;48.792;9.032;2023-03-09T03:01:19;4.17;;;1.47;;
177;SDS011;77;48.792;9.032;2023-03-09T03:03:44;4.80;;;1.40;;
177;SDS011;77;48.792;9.032;2023-03-09T03:06:09;2.80;;;1.30;;
177;SDS011;77;48.792;9.032;2023-03-09T03:08:35;3.30;;;1.40;;
177;SDS011;77;48.792;9.032;2023-03-09T03:11:00;3.80;;;1.50;;
177;SDS011;77;48.792;9.032;2023-03-09T03:13:25;3.33;;;1.50;;
177;SDS011;77;48.792;9.032;2023-03-09T03:15:54;3.00;;;1.40;;
177;SDS011;77;48.792;9.032;2023-03-09T03:18:22;4.30;;;1.60;;
177;SDS011;77;48.792;9.032;2023-03-09T03:20:47;3.70;;;1.37;;
177;SDS011;77;48.792;9.032;2023-03-09T03:23:13;3.17;;;1.20;;
177;SDS011;77;48.792;9.032;2023-03-09T03:25:38;3.50;;;1.40;;
177;SDS011;77;48.792;9.032;2023-03-09T03:28:03;2.83;;;1.20;;
177;SDS011;77;48.792;9.032;2023-03-09T03:30:28;2.80;;;1.40;;
177;SDS011;77;48.792;9.032;2023-03-09T03:32:53;2.93;;;1.30;;
177;SDS011;77;48.792;9.032;2023-03-09T03:35:20;3.30;;;1.40;;
177;SDS011;77;48.792;9.032;2023-03-09T03:37:45;3.20;;;1.40;;
177;SDS011;77;48.792;9.032;2023-03-09T03:40:11;3.40;;;1.60;;
177;SDS011;77;48.792;9.032;2023-03-09T03:42:36;3.73;;;1.40;;
177;SDS011;77;48.792;9.032;2023-03-09T03:45:02;3.43;;;1.53;;
177;SDS011;77;48.792;9.032;2023-03-09T03:47:27;3.53;;;1.47;;
177;SDS011;77;48.792;9.032;2023-03-09T03:49:52;3.70;;;1.70;;
177;SDS011;77;48.792;9.032;2023-03-09T03:52:19;3.90;;;1.40;;
177;SDS011;77;48.792;9.032;2023-03-09T03:54:44;5.10;;;1.60;;
177;SDS011;77;48.792;9.032;2023-03-09T03:57:09;5.43;;;1.93;;
177;SDS011;77;48.792;9.032;2023-03-09T03:59:34;7.00;;;2.00;;
177;SDS011;77;48.792;9.032;2023-03-09T04:01:59;5.20;;;2.13;;
177;SDS011;77;48.792;9.032;2023-03-09T04:04:25;6.73;;;2.00;;
177;SDS011;77;48.792;9.032;2023-03-09T04:06:50;5.77;;;2.33;;
177;SDS011;77;48.792;9.032;2023-03-09T04:09:16;6.33;;;2.30;;
177;SDS011;77;48.792;9.032;2023-03-09T04:11:41;6.00;;;2.00;;
177;SDS011;77;48.792;9.032;2023-03-09T04:14:07;6.90;;;2.20;;
177;SDS011;77;48.792;9.032;2023-03-09T04:16:32;11.57;;;2.50;;
177;SDS011;77;48.792;9.032;2023-03-09T04:18:57;7.50;;;2.40;;
177;SDS011;77;48.792;9.032;2023-03-09T04:21:22;11.07;;;3.13;;
177;SDS011;77;48.792;9.032;2023-03-09T04:23:47;7.97;;;2.50;;
177;SDS011;77;48.792;9.032;2023-03-09T04:26:14;6.10;;;2.30;;
177;SDS011;77;48.792;9.032;2023-03-09T04:28:39;13.23;;;3.03;;
177;SDS011;77;48.792;9.032;2023-03-09T04:31:05;8.97;;;2.60;;
177;SDS011;77;48.792;9.032;2023-03-09T04:33:30;14.13;;;3.00;;
177;SDS011;77;48.792;9.032;2023-03-09T04:35:55;8.10;;;2.80;;
177;SDS011;77;48.792;9.032;2023-03-09T04:38:20;9.63;;;2.93;;
177;SDS011;77;48.792;9.032;2023-03-09T04:40:45;9.50;;;2.97;;
177;SDS011;77;48.792;9.032;2023-03-09T04:43:12;9.30;;;2.80;;
177;SDS011;77;48.792;9.032;2023-03-09T04:45:37;8.20;;;2.93;;
177;SDS011;77;48.792;9.032;2023-03-09T04:48:02;8.60;;;3.00;;
177;SDS011;77;48.792;9.032;2023-03-09T04:50:28;9.07;;;2.70;;
177;SDS011;77;48.792;9.032;2023-03-09T04:52:53;11.30;;;2.80;;
177;SDS011;77;48.792;9.032;2023-03-09T04:55:18;9.30;;;2.77;;
177;SDS011;77;48.792;9.032;2023-03-09T04:57:43;10.47;;;3.53;;
177;SDS011;77;48.792;9.032;2023-03-09T05:00:11;9.33;;;3.20;;
177;SDS011;77;48.792;9.032;2023-03-09T05:02:36;9.43;;;2.97;;
177;SDS011;77;48.792;9.032;2023-03-09T05:05:01;10.70;;;3.23;;
177;SDS011;77;48.792;9.032;2023-03-09T05:07:26;7.80;;;2.63;;
177;SDS011;77;48.792;9.032;2023-03-09T05:09:52;9.07;;;2.70;;
177;SDS011;77;48.792;9.032;2023-03-09T05:12:17;11.43;;;2.97;;
177;SDS011;77;48.792;9.032;2023-03-09T05:14:42;10.40;;;4.20;;
177;SDS011;77;48.792;9.032;2023-03-09T05:17:09;10.20;;;3.13;;
177;SDS011;77;48.792;9.032;2023-03-09T05:19:34;14.50;;;2.97;;
177;SDS011;77;48.792;9.032;2023-03-09T05:21:59;10.80;;;3.07;;
177;SDS011;77;48.792;9.032;2023-03-09T05:24:24;10.50;;;2.87;;
177;SDS011;77;48.792;9.032;2023-03-09T05:26:49;10.43;;;3.17;;
177;SDS011;77;48.792;9.032;2023-03-09T05:29:15;11.90;;;2.97;;
177;SDS011;77;48.792;9.032;2023-03-09T05:31:40;13.30;;;3.20;;
177;SDS011;77;48.792;9.032;2023-03-09T05:34:06;12.63;;;3.30;;
177;SDS011;77;48.792;9.032;2023-03-09T05:36:31;7.87;;;2.80;;
177;SDS011;77;48.792;9.032;2023-03-09T05:38:57;9.60;;;3.10;;
177;SDS011;77;48.792;9.032;2023-03-09T05:41:22;8.33;;;3.23;;
177;SDS011;77;48.792;9.032;2023-03-09T05:43:47;14.13;;;3.20;;
177;SDS011;77;48.792;9.032;2023-03-09T05:46:14;11.57;;;2.93;;
177;SDS011;77;48.792;9.032;2023-03-09T05:48:39;10.63;;;3.07;;
177;SDS011;77;48.792;9.032;2023-03-09T05:51:06;9.43;;;2.70;;
177;SDS011;77;48.792;9.032;2023-03-09T05:53:32;8.50;;;3.40;;
177;SDS011;77;48.792;9.032;2023-03-09T05:55:57;9.40;;;2.97;;
177;SDS011;77;48.792;9.032;2023-03-09T05:58:23;11.67;;;3.67;;
177;SDS011;77;48.792;9.032;2023-03-09T06:00:48;11.27;;;3.50;;
177;SDS011;77;48.792;9.032;2023-03-09T06:03:14;8.47;;;2.60;;
177;SDS011;77;48.792;9.032;2023-03-09T06:05:39;8.43;;;2.83;;
177;SDS011;77;48.792;9.032;2023-03-09T06:08:05;12.03;;;3.00;;
177;SDS011;77;48.792;9.032;2023-03-09T06:10:31;10.43;;;2.70;;
177;SDS011;77;48.792;9.032;2023-03-09T06:12:56;10.47;;;3.00;;
177;SDS011;77;48.792;9.032;2023-03-09T06:15:21;8.70;;;3.10;;
177;SDS011;77;48.792;9.032;2023-03-09T06:17:46;9.77;;;3.27;;
177;SDS011;77;48.792;9.032;2023-03-09T06:20:12;11.17;;;3.07;;
177;SDS011;77;48.792;9.032;2023-03-09T06:22:37;10.07;;;2.73;;
177;SDS011;77;48.792;9.032;2023-03-09T06:25:04;12.00;;;3.20;;
177;SDS011;77;48.792;9.032;2023-03-09T06:27:29;10.60;;;3.23;;
177;SDS011;77;48.792;9.032;2023-03-09T06:29:54;8.50;;;2.87;;
177;SDS011;77;48.792;9.032;2023-03-09T06:32:20;11.83;;;3.07;;
177;SDS011;77;48.792;9.032;2023-03-09T06:34:45;9.93;;;2.70;;
177;SDS011;77;48.792;9.032;2023-03-09T06:37:10;10.97;;;3.20;;
177;SDS011;77;48.792;9.032;2023-03-09T06:39:35;11.73;;;2.60;;
177;SDS011;77;48.792;9.032;2023-03-09T06:42:02;12.97;;;2.87;;
177;SDS011;77;48.792;9.032;2023-03-09T06:44:27;8.93;;;3.00;;
177;SDS011;77;48.792;9.032;2023-03-09T06:46:52;9.87;;;2.80;;
177;SDS011;77;48.792;9.032;2023-03-09T06:49:18;8.27;;;2.90;;
177;SDS011;77;48.792;9.032;2023-03-09T06:51:43;10.60;;;2.90;;
177;SDS011;77;48.792;9.032;2023-03-09T06:54:08;12.07;;;3.00;;
177;SDS011;77;48.792;9.032;2023-03-09T06:56:33;9.73;;;2.90;;
177;SDS011;77;48.792;9.032;2023-03-09T06:59:00;9.50;;;2.90;;
177;SDS011;77;48.792;9.032;2023-03-09T07:01:25;11.13;;;3.00;;
177;SDS011;77;48.792;9.032;2023-03-09T07:03:51;9.80;;;2.60;;
177;SDS011;77;48.792;9.032;2023-03-09T07:06:16;10.13;;;2.90;;
177;SDS011;77;48.792;9.032;2023-03-09T07:08:41;12.13;;;2.80;;
177;SDS011;77;48.792;9.032;2023-03-09T07:11:06;7.93;;;2.87;;
177;SDS011;77;48.792;9.032;2023-03-09T07:13:32;12.40;;;2.83;;
177;SDS011;77;48.792;9.032;2023-03-09T07:16:00;10.10;;;2.67;;
177;SDS011;77;48.792;9.032;2023-03-09T07:18:25;12.93;;;2.80;;
177;SDS011;77;48.792;9.032;2023-03-09T07:20:51;9.23;;;2.63;;
177;SDS011;77;48.792;9.032;2023-03-09T07:23:16;6.77;;;2.40;;
177;SDS011;77;48.792;9.032;2023-03-09T07:25:41;7.83;;;2.50;;
177;SDS011;77;48.792;9.032;2023-03-09T07:28:07;11.10;;;3.03;;
177;SDS011;77;48.792;9.032;2023-03-09T07:30:32;9.27;;;2.80;;
177;SDS011;77;48.792;9.032;2023-03-09T07:32:59;6.50;;;2.43;;
177;SDS011;77;48.792;9.032;2023-03-09T07:35:25;10.37;;;2.67;;
177;SDS011;77;48.792;9.032;2023-03-09T07:37:50;8.60;;;2.63;;
177;SDS011;77;48.792;9.032;2023-03-09T07:40:16;8.47;;;2.40;;
177;SDS011;77;48.792;9.032;2023-03-09T07:42:41;5.47;;;2.20;;
177;SDS011;77;48.792;9.032;2023-03-09T07:45:06;7.93;;;2.57;;
177;SDS011;77;48.792;9.032;2023-03-09T07:47:32;7.80;;;2.50;;
177;SDS011;77;48.792;9.032;2023-03-09T07:49:58;9.17;;;2.70;;
177;SDS011;77;48.792;9.032;2023-03-09T07:52:24;6.20;;;2.70;;
177;SDS011;77;48.792;9.032;2023-03-09T07:54:49;11.70;;;2.80;;
177;SDS011;77;48.792;9.032;2023-03-09T07:57:15;6.67;;;2.27;;
177;SDS011;77;48.792;9.032;2023-03-09T07:59:40;6.83;;;2.40;;
177;SDS011;77;48.792;9.032;2023-03-09T08:02:08;8.30;;;2.47;;
177;SDS011;77;48.792;9.032;2023-03-09T08:04:33;6.07;;;2.50;;
177;SDS011;77;48.792;9.032;2023-03-09T08:07:00;6.20;;;2.67;;
177;SDS011;77;48.792;9.032;2023-03-09T08:09:25;4.90;;;2.03;;
177;SDS011;77;48.792;9.032;2023-03-09T08:11:52;7.13;;;2.20;;
177;SDS011;77;48.792;9.032;2023-03-09T08:14:17;6.40;;;2.40;;
177;SDS011;77;48.792;9.032;2023-03-09T08:16:43;13.80;;;2.50;;
177;SDS011;77;48.792;9.032;2023-03-09T08:19:08;4.80;;;2.00;;
177;SDS011;77;48.792;9.032;2023-03-09T08:21:33;5.90;;;2.10;;
177;SDS011;77;48.792;9.032;2023-03-09T08:24:00;5.93;;;2.17;;
177;SDS011;77;48.792;9.032;2023-03-09T08:26:25;6.53;;;2.40;;
177;SDS011;77;48.792;9.032;2023-03-09T08:28:51;6.50;;;2.40;;
177;SDS011;77;48.792;9.032;2023-03-09T08:31:16;5.47;;;2.10;;
177;SDS011;77;48.792;9.032;2023-03-09T08:33:41;6.30;;;2.17;;
177;SDS011;77;48.792;9.032;2023-03-09T08:36:10;5.67;;;2.20;;
177;SDS011;77;48.792;9.032;2023-03-09T08:38:35;7.73;;;2.20;;
177;SDS011;77;48.792;9.032;2023-03-09T08:41:02;8.77;;;2.50;;
177;SDS011;77;48.792;9.032;2023-03-09T08:43:27;9.93;;;2.57;;
177;SDS011;77;48.792;9.032;2023-03-09T08:45:52;6.53;;;2.10;;
177;SDS011;77;48.792;9.032;2023-03-09T08:48:18;9.80;;;2.70;;
177;SDS011;77;48.792;9.032;2023-03-09T08:50:43;8.40;;;2.40;;
177;SDS011;77;48.792;9.032;2023-03-09T08:53:08;8.33;;;2.53;;
177;SDS011;77;48.792;9.032;2023-03-09T08:55:33;7.10;;;2.27;;
177;SDS011;77;48.792;9.032;2023-03-09T08:58:00;6.53;;;2.23;;
177;SDS011;77;48.792;9.032;2023-03-09T09:00:25;5.60;;;2.10;;
177;SDS011;77;48.792;9.032;2023-03-09T09:02:50;12.83;;;2.73;;
177;SDS011;77;48.792;9.032;2023-03-09T09:05:16;7.20;;;2.23;;
177;SDS011;77;48.792;9.032;2023-03-09T09:07:41;7.07;;;2.83;;
177;SDS011;77;48.792;9.032;2023-03-09T09:10:06;8.10;;;2.30;;
177;SDS011;77;48.792;9.032;2023-03-09T09:12:32;8.93;;;2.50;;
177;SDS011;77;48.792;9.032;2023-03-09T09:14:58;14.23;;;4.13;;
177;SDS011;77;48.792;9.032;2023-03-09T09:17:23;8.07;;;2.03;;
177;SDS011;77;48.792;9.032;2023-03-09T09:19:49;8.17;;;2.40;;
177;SDS011;77;48.792;9.032;2023-03-09T09:22:14;6.33;;;2.30;;
177;SDS011;77;48.792;9.032;2023-03-09T09:24:39;5.30;;;2.13;;
177;SDS011;77;48.792;9.032;2023-03-09T09:27:05;8.73;;;2.47;;
177;SDS011;77;48.792;9.032;2023-03-09T09:29:30;5.80;;;2.30;;
177;SDS011;77;48.792;9.032;2023-03-09T09:31:57;6.97;;;2.30;;
177;SDS011;77;48.792;9.032;2023-03-09T09:34:22;11.77;;;2.60;;
177;SDS011;77;48.792;9.032;2023-03-09T09:36:47;8.13;;;1.90;;
177;SDS011;77;48.792;9.032;2023-03-09T09:39:13;5.27;;;1.97;;
177;SDS011;77;48.792;9.032;2023-03-09T09:41:38;5.87;;;2.30;;
177;SDS011;77;48.792;9.032;2023-03-09T09:44:06;5.93;;;2.00;;
177;SDS011;77;48.792;9.032;2023-03-09T09:46:37;7.30;;;2.50;;
177;SDS011;77;48.792;9.032;2023-03-09T09:49:05;7.17;;;2.10;;
177;SDS011;77;48.792;9.032;2023-03-09T09:51:37;8.40;;;2.40;;
177;SDS011;77;48.792;9.032;2023-03-09T09:54:06;7.57;;;2.30;;
177;SDS011;77;48.792;9.032;2023-03-09T09:56:36;7.50;;;2.10;;
177;SDS011;77;48.792;9.032;2023-03-09T09:59:02;6.80;;;2.50;;
177;SDS011;77;48.792;9.032;2023-03-09T10:01:29;6.83;;;2.13;;
177;SDS011;77;48.792;9.032;2023-03-09T10:04:02;5.53;;;2.33;;
177;SDS011;77;48.792;9.032;2023-03-09T10:06:31;4.50;;;2.10;;
177;SDS011;77;48.792;9.032;2023-03-09T10:08:57;5.83;;;2.10;;
177;SDS011;77;48.792;9.032;2023-03-09T10:11:24;4.67;;;2.10;;
177;SDS011;77;48.792;9.032;2023-03-09T10:13:53;8.70;;;2.10;;
177;SDS011;77;48.792;9.032;2023-03-09T10:16:20;5.47;;;2.40;;
177;SDS011;77;48.792;9.032;2023-03-09T10:18:47;6.57;;;2.00;;
177;SDS011;77;48.792;9.032;2023-03-09T10:21:16;4.93;;;2.10;;
177;SDS011;77;48.792;9.032;2023-03-09T10:23:43;7.03;;;2.40;;
177;SDS011;77;48.792;9.032;2023-03-09T10:26:13;5.80;;;2.13;;
177;SDS011;77;48.792;9.032;2023-03-09T10:28:41;5.40;;;1.90;;
177;SDS011;77;48.792;9.032;2023-03-09T10:31:08;5.93;;;2.10;;
177;SDS011;77;48.792;9.032;2023-03-09T10:33:37;9.30;;;2.70;;
177;SDS011;77;48.792;9.032;2023-03-09T10:36:05;5.40;;;2.03;;
177;SDS011;77;48.792;9.032;2023-03-09T10:38:31;5.40;;;2.30;;
177;SDS011;77;48.792;9.032;2023-03-09T10:40:58;7.03;;;2.20;;
177;SDS011;77;48.792;9.032;2023-03-09T10:43:24;7.33;;;2.30;;
177;SDS011;77;48.792;9.032;2023-03-09T10:45:50;5.37;;;2.10;;
177;SDS011;77;48.792;9.032;2023-03-09T10:48:19;4.13;;;2.00;;
177;SDS011;77;48.792;9.032;2023-03-09T10:50:54;6.03;;;2.10;;
177;SDS011;77;48.792;9.032;2023-03-09T10:53:23;4.03;;;1.97;;
177;SDS011;77;48.792;9.032;2023-03-09T10:55:49;11.40;;;2.50;;
177;SDS011;77;48.792;9.032;2023-03-09T10:58:18;4.97;;;2.23;;
177;SDS011;77;48.792;9.032;2023-03-09T11:00:52;4.33;;;1.80;;
177;SDS011;77;48.792;9.032;2023-03-09T11:03:19;7.40;;;2.23;;
177;SDS011;77;48.792;9.032;2023-03-09T11:05:45;8.43;;;2.00;;
177;SDS011;77;48.792;9.032;2023-03-09T11:08:10;8.70;;;2.53;;
177;SDS011;77;48.792;9.032;2023-03-09T11:10:45;6.67;;;2.20;;
177;SDS011;77;48.792;9.032;2023-03-09T11:13:16;8.30;;;2.47;;
177;SDS011;77;48.792;9.032;2023-03-09T11:15:44;7.43;;;2.10;;
177;SDS011;77;48.792;9.032;2023-03-09T11:18:26;8.80;;;2.30;;
177;SDS011;77;48.792;9.032;2023-03-09T11:20:52;6.37;;;2.33;;
177;SDS011;77;48.792;9.032;2023-03-09T11:23:18;6.80;;;2.17;;
177;SDS011;77;48.792;9.032;2023-03-09T11:25:55;7.77;;;2.30;;
177;SDS011;77;48.792;9.032;2023-03-09T11:28:24;5.63;;;2.20;;
177;SDS011;77;48.792;9.032;2023-03-09T11:30:52;5.17;;;2.13;;
177;SDS011;77;48.792;9.032;2023-03-09T11:33:19;7.10;;;2.50;;
177;SDS011;77;48.792;9.032;2023-03-09T11:35:44;7.10;;;2.20;;
177;SDS011;77;48.792;9.032;2023-03-09T11:38:12;6.50;;;1.90;;
177;SDS011;77;48.792;9.032;2023-03-09T11:40:38;7.50;;;2.40;;
177;SDS011;77;48.792;9.032;2023-03-09T11:43:04;6.33;;;2.40;;
177;SDS011;77;48.792;9.032;2023-03-09T11:45:30;5.57;;;2.10;;
177;SDS011;77;48.792;9.032;2023-03-09T11:47:59;5.10;;;2.07;;
177;SDS011;77;48.792;9.032;2023-03-09T11:50:26;6.20;;;2.20;;
177;SDS011;77;48.792;9.032;2023-03-09T11:52:54;4.20;;;2.00;;
177;SDS011;77;48.792;9.032;2023-03-09T11:55:22;8.90;;;1.87;;
177;SDS011;77;48.792;9.032;2023-03-09T11:57:49;3.80;;;1.80;;
177;SDS011;77;48.792;9.032;2023-03-09T12:00:27;4.07;;;1.70;;
177;SDS011;77;48.792;9.032;2023-03-09T12:02:55;3.63;;;1.90;;
177;SDS011;77;48.792;9.032;2023-03-09T12:05:22;4.83;;;2.00;;
177;SDS011;77;48.792;9.032;2023-03-09T12:07:50;4.47;;;1.67;;
177;SDS011;77;48.792;9.032;2023-03-09T12:10:20;4.33;;;1.90;;
177;SDS011;77;48.792;9.032;2023-03-09T12:12:48;5.70;;;1.87;;
177;SDS011;77;48.792;9.032;2023-03-09T12:15:15;6.43;;;2.10;;
177;SDS011;77;48.792;9.032;2023-03-09T12:17:43;8.30;;;2.17;;
177;SDS011;77;48.792;9.032;2023-03-09T12:20:18;5.03;;;1.83;;
177;SDS011;77;48.792;9.032;2023-03-09T12:22:45;5.23;;;1.90;;
177;SDS011;77;48.792;9.032;2023-03-09T12:25:15;3.20;;;1.63;;
177;SDS011;77;48.792;9.032;2023-03-09T12:27:46;4.97;;;1.90;;
177;SDS011;77;48.792;9.032;2023-03-09T12:30:18;5.07;;;1.90;;
177;SDS011;77;48.792;9.032;2023-03-09T12:32:47;4.97;;;2.03;;
177;SDS011;77;48.792;9.032;2023-03-09T12:37:56;4.43;;;2.00;;
177;SDS011;77;48.792;9.032;2023-03-09T12:40:35;4.67;;;1.97;;
177;SDS011;77;48.792;9.032;2023-03-09T12:45:41;5.80;;;2.20;;
177;SDS011;77;48.792;9.032;2023-03-09T12:48:18;6.27;;;2.20;;
177;SDS011;77;48.792;9.032;2023-03-09T12:50:47;4.90;;;2.20;;
177;SDS011;77;48.792;9.032;2023-03-09T12:53:15;5.00;;;2.07;;
177;SDS011;77;48.792;9.032;2023-03-09T12:55:43;6.03;;;2.17;;
177;SDS011;77;48.792;9.032;2023-03-09T13:00:55;6.63;;;2.57;;
177;SDS011;77;48.792;9.032;2023-03-09T13:03:22;6.00;;;2.20;;
177;SDS011;77;48.792;9.032;2023-03-09T13:05:47;4.53;;;2.10;;
177;SDS011;77;48.792;9.032;2023-03-09T13:08:25;4.97;;;2.00;;
177;SDS011;77;48.792;9.032;2023-03-09T13:10:51;5.40;;;2.10;;
177;SDS011;77;48.792;9.032;2023-03-09T13:13:37;6.80;;;2.20;;
177;SDS011;77;48.792;9.032;2023-03-09T13:18:46;4.23;;;2.13;;
177;SDS011;77;48.792;9.032;2023-03-09T13:21:37;6.90;;;2.47;;
177;SDS011;77;48.792;9.032;2023-03-09T13:24:04;5.70;;;2.20;;
177;SDS011;77;48.792;9.032;2023-03-09T13:26:35;5.83;;;2.40;;
177;SDS011;77;48.792;9.032;2023-03-09T13:29:04;6.53;;;2.50;;
177;SDS011;77;48.792;9.032;2023-03-09T13:31:32;4.90;;;2.30;;
177;SDS011;77;48.792;9.032;2023-03-09T13:33:57;5.93;;;2.20;;
177;SDS011;77;48.792;9.032;2023-03-09T13:36:23;8.53;;;2.47;;
177;SDS011;77;48.792;9.032;2023-03-09T13:38:51;5.43;;;2.20;;
177;SDS011;77;48.792;9.032;2023-03-09T13:41:20;4.80;;;2.30;;
177;SDS011;77;48.792;9.032;2023-03-09T13:43:46;7.03;;;2.53;;
177;SDS011;77;48.792;9.032;2023-03-09T13:46:16;9.20;;;2.30;;
177;SDS011;77;48.792;9.032;2023-03-09T13:48:43;4.60;;;2.03;;
177;SDS011;77;48.792;9.032;2023-03-09T13:53:56;7.23;;;2.43;;
177;SDS011;77;48.792;9.032;2023-03-09T13:56:29;7.27;;;2.60;;
177;SDS011;77;48.792;9.032;2023-03-09T13:58:54;4.87;;;2.37;;
177;SDS011;77;48.792;9.032;2023-03-09T14:01:20;4.77;;;2.50;;
177;SDS011;77;48.792;9.032;2023-03-09T14:03:49;6.30;;;2.30;;
177;SDS011;77;48.792;9.032;2023-03-09T14:06:17;6.47;;;2.20;;
177;SDS011;77;48.792;9.032;2023-03-09T14:08:46;4.80;;;2.00;;
177;SDS011;77;48.792;9.032;2023-03-09T14:11:13;5.70;;;2.70;;
177;SDS011;77;48.792;9.032;2023-03-09T14:13:42;4.83;;;2.10;;
177;SDS011;77;48.792;9.032;2023-03-09T14:16:11;7.10;;;2.60;;
177;SDS011;77;48.792;9.032;2023-03-09T14:18:40;5.90;;;2.07;;
177;SDS011;77;48.792;9.032;2023-03-09T14:21:15;5.93;;;2.20;;
177;SDS011;77;48.792;9.032;2023-03-09T14:23:42;4.97;;;2.20;;
177;SDS011;77;48.792;9.032;2023-03-09T14:26:08;6.87;;;2.70;;
177;SDS011;77;48.792;9.032;2023-03-09T14:28:34;5.97;;;2.03;;
177;SDS011;77;48.792;9.032;2023-03-09T14:31:09;6.10;;;2.23;;
177;SDS011;77;48.792;9.032;2023-03-09T14:33:35;4.73;;;2.20;;
177;SDS011;77;48.792;9.032;2023-03-09T14:36:04;7.03;;;2.30;;
177;SDS011;77;48.792;9.032;2023-03-09T14:38:30;4.87;;;2.40;;
177;SDS011;77;48.792;9.032;2023-03-09T14:40:57;6.50;;;2.17;;
177;SDS011;77;48.792;9.032;2023-03-09T14:43:33;5.73;;;2.10;;
177;SDS011;77;48.792;9.032;2023-03-09T14:46:08;6.47;;;2.30;;
177;SDS011;77;48.792;9.032;2023-03-09T14:48:34;5.70;;;2.20;;
177;SDS011;77;48.792;9.032;2023-03-09T14:50:59;7.23;;;2.67;;
177;SDS011;77;48.792;9.032;2023-03-09T14:53:24;4.93;;;2.33;;
177;SDS011;77;48.792;9.032;2023-03-09T14:55:50;6.37;;;2.43;;
177;SDS011;77;48.792;9.032;2023-03-09T14:58:15;4.93;;;2.27;;
177;SDS011;77;48.792;9.032;2023-03-09T15:00:40;5.53;;;2.30;;
177;SDS011;77;48.792;9.032;2023-03-09T15:03:07;5.03;;;2.00;;
177;SDS011;77;48.792;9.032;2023-03-09T15:05:32;5.60;;;2.27;;
177;SDS011;77;48.792;9.032;2023-03-09T15:07:58;6.37;;;2.27;;
177;SDS011;77;48.792;9.032;2023-03-09T15:10:23;5.37;;;2.00;;
177;SDS011;77;48.792;9.032;2023-03-09T15:12:48;5.83;;;2.13;;
177;SDS011;77;48.792;9.032;2023-03-09T15:15:15;9.00;;;2.57;;
177;SDS011;77;48.792;9.032;2023-03-09T15:17:41;7.90;;;2.30;;
177;SDS011;77;48.792;9.032;2023-03-09T15:20:11;6.93;;;2.37;;
177;SDS011;77;48.792;9.032;2023-03-09T15:22:37;7.47;;;2.20;;
177;SDS011;77;48.792;9.032;2023-03-09T15:25:02;6.90;;;2.27;;
177;SDS011;77;48.792;9.032;2023-03-09T15:27:27;5.23;;;2.00;;
177;SDS011;77;48.792;9.032;2023-03-09T15:29:53;8.20;;;2.47;;
177;SDS011;77;48.792;9.032;2023-03-09T15:32:18;4.67;;;2.33;;
177;SDS011;77;48.792;9.032;2023-03-09T15:34:43;4.27;;;2.30;;
177;SDS011;77;48.792;9.032;2023-03-09T15:37:10;5.00;;;2.13;;
177;SDS011;77;48.792;9.032;2023-03-09T15:39:35;4.80;;;2.20;;
177;SDS011;77;48.792;9.032;2023-03-09T15:42:00;6.13;;;2.20;;
177;SDS011;77;48.792;9.032;2023-03-09T15:44:26;6.97;;;2.30;;
177;SDS011;77;48.792;9.032;2023-03-09T15:46:51;6.87;;;2.23;;
177;SDS011;77;48.792;9.032;2023-03-09T15:49:16;5.60;;;2.23;;
177;SDS011;77;48.792;9.032;2023-03-09T15:51:41;5.57;;;2.20;;
177;SDS011;77;48.792;9.032;2023-03-09T15:54:08;8.20;;;2.30;;
177;SDS011;77;48.792;9.032;2023-03-09T15:56:33;7.90;;;2.67;;
177;SDS011;77;48.792;9.032;2023-03-09T15:58:58;6.43;;;2.73;;
177;SDS011;77;48.792;9.032;2023-03-09T16:01:23;7.17;;;2.20;;
177;SDS011;77;48.792;9.032;2023-03-09T16:03:49;7.63;;;2.23;;
177;SDS011;77;48.792;9.032;2023-03-09T16:06:15;7.70;;;2.60;;
177;SDS011;77;48.792;9.032;2023-03-09T16:08:40;9.53;;;2.83;;
177;SDS011;77;48.792;9.032;2023-03-09T16:11:09;9.17;;;2.40;;